createdAt,value
2019-01-23T00:01:08.864Z,60.23
2019-01-23T00:03:39.307Z,58.95
2019-01-23T00:06:09.945Z,55.60
2019-01-23T00:08:40.444Z,56.00
2019-01-23T00:11:11.027Z,50.83
2019-01-23T00:13:41.607Z,54.40
2019-01-23T00:16:12.222Z,57.17
2019-01-23T00:18:42.749Z,57.17
2019-01-23T00:21:13.347Z,55.65
2019-01-23T00:23:43.942Z,59.50
2019-01-23T00:26:14.600Z,62.80
2019-01-23T00:28:45.240Z,58.28
2019-01-23T00:31:15.790Z,54.27
2019-01-23T00:33:46.399Z,51.98
2019-01-23T00:36:17.034Z,50.78
2019-01-23T00:38:47.651Z,49.08
2019-01-23T00:41:18.296Z,56.18
2019-01-23T00:43:48.954Z,58.13
2019-01-23T00:46:19.496Z,57.00
2019-01-23T00:48:49.957Z,55.80
2019-01-23T00:51:20.679Z,56.90
2019-01-23T00:53:52.163Z,62.75
2019-01-23T00:56:22.650Z,57.78
2019-01-23T00:58:53.065Z,59.33
2019-01-23T01:01:23.705Z,53.60
2019-01-23T01:03:54.233Z,53.45
2019-01-23T01:06:24.866Z,57.20
2019-01-23T01:08:55.465Z,59.42
2019-01-23T01:11:26.016Z,55.88
2019-01-23T01:13:56.627Z,53.90
2019-01-23T01:16:27.212Z,55.48
2019-01-23T01:18:57.765Z,55.63
2019-01-23T01:21:28.353Z,56.50
2019-01-23T01:23:58.925Z,59.05
2019-01-23T01:26:29.529Z,54.45
2019-01-23T01:29:00.134Z,54.83
2019-01-23T01:31:30.788Z,54.45
2019-01-23T01:34:01.325Z,57.67
2019-01-23T01:36:31.905Z,56.20
2019-01-23T01:39:02.438Z,47.35
2019-01-23T01:41:33.012Z,53.87
2019-01-23T01:44:03.786Z,48.00
2019-01-23T01:46:34.339Z,49.00
2019-01-23T01:49:04.974Z,54.42
2019-01-23T01:51:35.566Z,55.52
2019-01-23T01:54:06.967Z,58.98
2019-01-23T01:56:37.528Z,55.12
2019-01-23T01:59:08.135Z,55.90
2019-01-23T02:01:38.837Z,53.08
2019-01-23T02:04:09.388Z,58.68
2019-01-23T02:06:40.009Z,54.53
2019-01-23T02:09:10.714Z,52.30
2019-01-23T02:11:41.320Z,58.65
2019-01-23T02:14:11.984Z,45.63
2019-01-23T02:16:42.639Z,54.98
2019-01-23T02:19:13.246Z,49.45
2019-01-23T02:21:43.883Z,45.03
2019-01-23T02:24:14.486Z,55.12
2019-01-23T02:26:45.148Z,51.73
2019-01-23T02:29:15.624Z,51.55
2019-01-23T02:31:46.133Z,50.55
2019-01-23T02:34:16.714Z,47.30
2019-01-23T02:36:47.261Z,56.42
2019-01-23T02:39:17.938Z,50.03
2019-01-23T02:41:48.530Z,58.85
2019-01-23T02:44:19.107Z,58.15
2019-01-23T02:46:49.580Z,60.88
2019-01-23T02:49:19.976Z,56.00
2019-01-23T02:51:50.599Z,55.63
2019-01-23T02:54:22.731Z,58.73
2019-01-23T02:56:53.248Z,64.65
2019-01-23T02:59:23.803Z,53.38
2019-01-23T03:01:54.384Z,55.73
2019-01-23T03:04:25.036Z,57.13
2019-01-23T03:06:55.660Z,61.40
2019-01-23T03:09:26.753Z,56.85
2019-01-23T03:11:57.342Z,55.75
2019-01-23T03:14:27.941Z,60.95
2019-01-23T03:16:58.605Z,62.93
2019-01-23T03:19:29.521Z,59.90
2019-01-23T03:22:00.179Z,41.75
2019-01-23T03:24:30.584Z,38.63
2019-01-23T03:27:01.127Z,39.30
2019-01-23T03:29:31.673Z,42.20
2019-01-23T03:32:02.980Z,43.87
2019-01-23T03:34:33.566Z,43.48
2019-01-23T03:37:04.395Z,53.50
2019-01-23T03:39:34.962Z,47.33
2019-01-23T03:42:05.863Z,48.63
2019-01-23T03:44:36.463Z,45.90
2019-01-23T03:47:07.161Z,54.85
2019-01-23T03:49:37.764Z,54.80
2019-01-23T03:52:09.911Z,50.63
2019-01-23T03:54:41.142Z,46.73
2019-01-23T03:57:11.769Z,51.15
2019-01-23T03:59:42.378Z,51.50
2019-01-23T04:02:13.019Z,49.18
2019-01-23T04:04:43.611Z,53.48
2019-01-23T04:07:14.228Z,44.58
2019-01-23T04:09:44.801Z,45.28
2019-01-23T04:12:15.442Z,47.35
2019-01-23T04:14:46.009Z,41.35
2019-01-23T04:17:16.655Z,38.53
2019-01-23T04:19:47.238Z,43.10
2019-01-23T04:22:17.816Z,42.70
2019-01-23T04:24:48.295Z,41.65
2019-01-23T04:27:18.950Z,40.35
2019-01-23T04:29:49.488Z,47.05
2019-01-23T04:32:20.070Z,42.88
2019-01-23T04:34:50.625Z,44.77
2019-01-23T04:37:21.529Z,45.95
2019-01-23T04:39:52.041Z,41.68
2019-01-23T04:42:22.593Z,52.98
2019-01-23T04:44:53.087Z,52.95
2019-01-23T04:47:23.698Z,54.42
2019-01-23T04:49:54.218Z,47.30
2019-01-23T04:52:38.230Z,50.55
2019-01-23T04:55:09.714Z,44.80
2019-01-23T04:57:40.187Z,45.25
2019-01-23T05:00:15.123Z,51.25
2019-01-23T05:02:45.789Z,46.92
2019-01-23T05:05:16.385Z,46.85
2019-01-23T05:07:46.868Z,50.38
2019-01-23T05:10:17.423Z,52.73
2019-01-23T05:12:48.087Z,47.08
2019-01-23T05:15:26.021Z,45.52
2019-01-23T05:17:51.985Z,44.27
2019-01-23T05:20:24.021Z,47.95
2019-01-23T05:22:54.566Z,38.70
2019-01-23T05:25:25.274Z,40.58
2019-01-23T05:27:55.940Z,43.52
2019-01-23T05:30:26.801Z,44.83
2019-01-23T05:32:57.435Z,43.50
2019-01-23T05:35:28.217Z,47.80
2019-01-23T05:37:58.879Z,50.63
2019-01-23T05:40:29.786Z,51.83
2019-01-23T05:43:00.988Z,53.60
2019-01-23T05:45:32.929Z,59.55
2019-01-23T05:48:06.215Z,57.33
2019-01-23T05:50:35.899Z,51.35
2019-01-23T05:53:06.639Z,49.77
2019-01-23T05:55:41.075Z,45.28
2019-01-23T05:58:11.823Z,55.50
2019-01-23T06:00:45.242Z,56.77
2019-01-23T06:03:17.809Z,57.48
2019-01-23T06:05:48.487Z,65.87
2019-01-23T06:08:19.264Z,51.60
2019-01-23T06:10:52.670Z,53.55
2019-01-23T06:13:23.238Z,49.95
2019-01-23T06:15:54.160Z,51.73
2019-01-23T06:18:25.784Z,47.45
2019-01-23T06:20:56.734Z,52.65
2019-01-23T06:23:27.706Z,54.30
2019-01-23T06:25:58.321Z,53.92
2019-01-23T06:28:29.589Z,51.37
2019-01-23T06:31:00.297Z,53.83
2019-01-23T06:33:30.804Z,52.08
2019-01-23T06:36:01.794Z,47.45
2019-01-23T06:38:32.354Z,45.38
2019-01-23T06:41:02.969Z,51.75
2019-01-23T06:43:33.589Z,50.25
2019-01-23T06:46:05.221Z,53.17
2019-01-23T06:48:37.525Z,49.33
2019-01-23T06:51:08.977Z,52.93
2019-01-23T06:53:39.615Z,47.10
2019-01-23T06:56:13.114Z,44.38
2019-01-23T06:58:43.430Z,54.77
2019-01-23T07:01:14.033Z,52.67
2019-01-23T07:03:48.661Z,52.65
2019-01-23T07:06:20.950Z,53.98
2019-01-23T07:08:53.979Z,51.25
2019-01-23T07:11:28.710Z,55.23
2019-01-23T07:14:00.602Z,57.40
2019-01-23T07:16:35.564Z,50.00
2019-01-23T07:19:11.145Z,41.13
2019-01-23T07:21:43.678Z,48.45
2019-01-23T07:24:14.413Z,38.30
2019-01-23T07:26:46.071Z,43.23
2019-01-23T07:29:18.125Z,42.62
2019-01-23T07:31:53.161Z,42.93
2019-01-23T07:34:24.642Z,44.93
2019-01-23T07:36:56.301Z,47.05
2019-01-23T07:39:29.424Z,41.37
2019-01-23T07:42:01.947Z,52.53
2019-01-23T07:44:34.572Z,44.65
2019-01-23T07:47:06.508Z,46.58
2019-01-23T07:49:38.822Z,33.53
2019-01-23T07:52:10.615Z,38.60
2019-01-23T07:54:42.447Z,34.60
2019-01-23T07:57:14.614Z,31.75
2019-01-23T07:59:46.742Z,25.05
2019-01-23T08:02:18.180Z,35.20
2019-01-23T08:04:49.806Z,32.63
2019-01-23T08:07:20.846Z,29.80
2019-01-23T08:09:51.245Z,32.30
2019-01-23T08:12:21.851Z,27.43
2019-01-23T08:14:52.512Z,21.37
2019-01-23T08:17:23.571Z,21.77
2019-01-23T08:19:54.190Z,14.55
2019-01-23T08:22:24.737Z,27.55
2019-01-23T08:24:55.287Z,18.12
2019-01-23T08:27:27.052Z,28.47
2019-01-23T08:29:57.549Z,16.93
2019-01-23T08:32:28.185Z,26.70
2019-01-23T08:34:58.813Z,29.85
2019-01-23T08:37:29.387Z,33.33
2019-01-23T08:40:00.044Z,34.80
2019-01-23T08:42:30.651Z,30.62
2019-01-23T08:45:01.314Z,29.40
2019-01-23T08:47:31.969Z,18.13
2019-01-23T08:50:02.575Z,39.97
2019-01-23T08:52:33.183Z,29.83
2019-01-23T08:55:04.583Z,30.47
2019-01-23T08:57:36.002Z,36.70
2019-01-23T09:00:17.362Z,36.83
2019-01-23T09:02:47.965Z,30.37
2019-01-23T09:07:54.684Z,37.13
2019-01-23T09:10:29.025Z,29.07
2019-01-23T09:12:59.625Z,32.60
2019-01-23T09:15:31.075Z,39.47
2019-01-23T09:18:03.780Z,41.67
2019-01-23T09:20:34.386Z,31.07
2019-01-23T09:23:05.322Z,34.97
2019-01-23T09:25:36.624Z,38.30
2019-01-23T09:28:07.263Z,34.43
2019-01-23T09:30:45.430Z,40.20
2019-01-23T09:33:26.233Z,43.67
2019-01-23T09:36:22.056Z,40.03
2019-01-23T09:39:04.373Z,41.17
2019-01-23T09:41:58.889Z,39.30
2019-01-23T09:45:06.684Z,38.83
2019-01-23T09:47:47.291Z,31.70
2019-01-23T09:50:25.372Z,30.23
2019-01-23T09:53:06.448Z,22.17
2019-01-23T09:55:36.993Z,34.00
2019-01-23T09:58:09.211Z,32.30
2019-01-23T10:00:39.929Z,33.63
2019-01-23T10:03:10.747Z,32.47
2019-01-23T10:05:41.380Z,35.63
2019-01-23T10:08:12.029Z,32.80
2019-01-23T10:10:44.053Z,24.37
2019-01-23T10:13:14.609Z,35.37
2019-01-23T10:15:48.014Z,28.17
2019-01-23T10:18:18.540Z,26.37
2019-01-23T10:20:49.175Z,32.13
2019-01-23T10:23:19.678Z,37.60
2019-01-23T10:25:50.417Z,27.60
2019-01-23T10:28:20.886Z,27.77
2019-01-23T10:30:51.887Z,31.17
2019-01-23T10:33:23.294Z,33.87
2019-01-23T10:35:53.935Z,34.40
2019-01-23T10:38:24.671Z,31.10
2019-01-23T10:40:55.399Z,32.87
2019-01-23T10:43:26.126Z,31.17
2019-01-23T10:45:56.759Z,36.87
2019-01-23T10:48:27.450Z,34.30
2019-01-23T10:50:58.042Z,36.43
2019-01-23T10:53:28.663Z,38.47
2019-01-23T10:55:59.308Z,30.93
2019-01-23T10:58:30.683Z,34.13
2019-01-23T11:01:01.506Z,35.43
2019-01-23T11:03:32.094Z,32.10
2019-01-23T11:06:02.810Z,35.80
2019-01-23T11:08:33.437Z,34.57
2019-01-23T11:11:05.529Z,31.93
2019-01-23T11:13:36.282Z,33.37
2019-01-23T11:16:06.923Z,34.30
2019-01-23T11:18:37.676Z,35.17
2019-01-23T11:21:08.310Z,34.87
2019-01-23T11:23:38.917Z,30.60
2019-01-23T11:26:09.519Z,24.03
2019-01-23T11:28:40.152Z,35.93
2019-01-23T11:31:10.751Z,38.27
2019-01-23T11:33:41.732Z,30.77
2019-01-23T11:36:13.192Z,24.93
2019-01-23T11:38:47.769Z,28.60
2019-01-23T11:41:24.016Z,31.10
2019-01-23T11:43:54.877Z,33.43
2019-01-23T11:46:28.064Z,29.47
2019-01-23T11:48:59.635Z,28.13
2019-01-23T11:51:30.487Z,32.70
2019-01-23T11:54:01.154Z,31.97
2019-01-23T11:56:31.840Z,26.80
2019-01-23T11:59:03.240Z,27.73
2019-01-23T12:01:33.977Z,31.37
2019-01-23T12:04:04.837Z,35.67
2019-01-23T12:06:35.591Z,29.73
2019-01-23T12:09:08.891Z,36.70
2019-01-23T12:11:39.510Z,35.30
2019-01-23T12:14:10.157Z,30.73
2019-01-23T12:16:44.823Z,34.63
2019-01-23T12:19:15.468Z,31.07
2019-01-23T12:21:45.992Z,32.03
2019-01-23T12:24:16.717Z,27.17
2019-01-23T12:26:47.207Z,37.13
2019-01-23T12:29:17.825Z,43.77
2019-01-23T12:31:48.371Z,32.20
2019-01-23T12:34:18.988Z,34.97
2019-01-23T12:36:49.591Z,33.53
2019-01-23T12:39:20.166Z,29.90
2019-01-23T12:41:50.764Z,38.07
2019-01-23T12:44:21.482Z,37.00
2019-01-23T12:46:53.375Z,28.33
2019-01-23T12:49:23.981Z,40.90
2019-01-23T12:51:54.650Z,31.33
2019-01-23T12:54:26.161Z,32.60
2019-01-23T12:56:57.975Z,37.43
2019-01-23T12:59:28.696Z,32.20
2019-01-23T13:02:02.263Z,35.17
2019-01-23T13:04:33.422Z,33.63
2019-01-23T13:07:04.007Z,33.00
2019-01-23T13:09:34.499Z,32.83
2019-01-23T13:12:06.605Z,35.37
2019-01-23T13:14:37.125Z,34.97
2019-01-23T13:17:07.760Z,38.27
2019-01-23T13:19:38.381Z,35.47
2019-01-23T13:22:09.014Z,36.03
2019-01-23T13:24:40.612Z,32.20
2019-01-23T13:27:11.925Z,27.90
2019-01-23T13:29:44.924Z,30.60
2019-01-23T13:32:16.097Z,23.57
2019-01-23T13:34:46.957Z,33.20
2019-01-23T13:37:18.667Z,36.67
2019-01-23T13:39:51.258Z,33.93
2019-01-23T13:42:23.125Z,33.87
2019-01-23T13:44:53.774Z,28.83
2019-01-23T13:47:24.430Z,33.67
2019-01-23T13:49:55.056Z,36.00
2019-01-23T13:52:25.546Z,26.93
2019-01-23T13:54:56.130Z,44.17
2019-01-23T13:57:26.680Z,41.93
2019-01-23T13:59:58.207Z,37.07
2019-01-23T14:02:29.371Z,38.30
2019-01-23T14:05:01.109Z,30.67
2019-01-23T14:07:31.722Z,37.57
2019-01-23T14:10:05.315Z,31.00
2019-01-23T14:12:36.101Z,28.57
2019-01-23T14:15:16.044Z,27.97
2019-01-23T14:17:46.648Z,30.87
2019-01-23T14:20:18.876Z,20.33
2019-01-23T14:22:49.547Z,28.23
2019-01-23T14:25:20.162Z,29.33
2019-01-23T14:27:51.161Z,24.75
2019-01-23T14:30:38.930Z,27.67
2019-01-23T14:33:09.563Z,30.70
2019-01-23T14:35:41.485Z,27.97
2019-01-23T14:38:12.115Z,29.33
2019-01-23T14:40:42.782Z,21.07
2019-01-23T14:43:13.446Z,36.90
2019-01-23T14:45:43.980Z,25.77
2019-01-23T14:48:14.595Z,30.73
2019-01-23T14:50:45.223Z,33.70
2019-01-23T14:53:15.820Z,30.43
2019-01-23T14:55:48.314Z,26.77
2019-01-23T14:58:18.939Z,29.10
2019-01-23T15:00:49.628Z,33.63
2019-01-23T15:03:20.355Z,29.43
2019-01-23T15:05:51.011Z,34.87
2019-01-23T15:08:22.912Z,24.70
2019-01-23T15:10:53.543Z,31.17
2019-01-23T15:13:24.120Z,31.05
2019-01-23T15:15:54.757Z,29.35
2019-01-23T15:18:25.399Z,26.67
2019-01-23T15:20:56.074Z,28.60
2019-01-23T15:23:26.839Z,38.17
2019-01-23T15:25:57.496Z,23.17
2019-01-23T15:28:28.308Z,21.57
2019-01-23T15:30:58.941Z,29.50
2019-01-23T15:33:29.640Z,38.83
2019-01-23T15:36:00.284Z,29.30
2019-01-23T15:38:31.110Z,30.92
2019-01-23T15:41:01.740Z,38.27
2019-01-23T15:43:32.431Z,34.18
2019-01-23T15:46:03.139Z,32.75
2019-01-23T15:48:34.587Z,34.70
2019-01-23T15:51:07.209Z,29.45
2019-01-23T15:53:37.697Z,37.70
2019-01-23T15:56:08.360Z,39.92
2019-01-23T15:58:39.090Z,37.85
2019-01-23T16:01:10.501Z,34.27
2019-01-23T16:03:41.229Z,34.23
2019-01-23T16:06:11.862Z,39.48
2019-01-23T16:08:42.594Z,42.40
2019-01-23T16:11:14.374Z,41.70
2019-01-23T16:13:44.976Z,31.35
2019-01-23T16:16:15.918Z,42.67
2019-01-23T16:18:46.591Z,43.00
2019-01-23T16:21:17.309Z,38.63
2019-01-23T16:23:47.845Z,45.23
2019-01-23T16:26:18.949Z,43.33
2019-01-23T16:28:49.584Z,44.10
2019-01-23T16:31:21.129Z,36.13
2019-01-23T16:33:53.396Z,31.07
2019-01-23T16:36:24.124Z,37.63
2019-01-23T16:38:54.682Z,33.88
2019-01-23T16:41:25.241Z,40.73
2019-01-23T16:43:57.144Z,41.28
2019-01-23T16:46:28.358Z,47.73
2019-01-23T16:48:58.984Z,45.12
2019-01-23T16:51:31.757Z,39.60
2019-01-23T16:54:02.829Z,47.53
2019-01-23T16:56:34.040Z,36.98
2019-01-23T16:59:06.055Z,40.53
2019-01-23T17:01:37.519Z,54.50
2019-01-23T17:04:08.268Z,47.20
2019-01-23T17:06:38.830Z,43.95
2019-01-23T17:09:10.605Z,42.40
2019-01-23T17:11:41.576Z,44.07
2019-01-23T17:14:12.243Z,40.17
2019-01-23T17:16:42.922Z,45.10
2019-01-23T17:19:16.667Z,40.80
2019-01-23T17:21:48.200Z,44.27
2019-01-23T17:24:18.925Z,36.23
2019-01-23T17:26:49.820Z,34.98
2019-01-23T17:29:20.479Z,31.70
2019-01-23T17:31:51.258Z,41.65
2019-01-23T17:34:22.863Z,43.10
2019-01-23T17:39:34.292Z,44.90
2019-01-23T17:42:05.253Z,40.30
2019-01-23T17:44:35.846Z,36.17
2019-01-23T17:47:06.884Z,45.70
2019-01-23T17:49:37.538Z,46.23
2019-01-23T17:52:08.287Z,40.37
2019-01-23T17:54:38.872Z,39.20
2019-01-23T17:57:09.636Z,36.30
2019-01-23T17:59:40.243Z,39.67
2019-01-23T18:02:13.969Z,40.70
2019-01-23T18:04:46.570Z,39.00
2019-01-23T18:07:20.628Z,36.67
2019-01-23T18:09:52.830Z,38.48
2019-01-23T18:12:23.493Z,36.47
2019-01-23T18:14:57.122Z,37.97
2019-01-23T18:17:30.129Z,37.00
2019-01-23T18:20:01.146Z,32.45
2019-01-23T18:22:31.911Z,34.97
2019-01-23T18:25:02.482Z,36.63
2019-01-23T18:27:33.448Z,44.77
2019-01-23T18:30:06.596Z,40.80
2019-01-23T18:32:40.079Z,48.90
2019-01-23T18:35:46.533Z,43.48
2019-01-23T18:38:34.967Z,36.25
2019-01-23T18:41:25.735Z,38.83
2019-01-23T18:44:30.615Z,34.10
2019-01-23T18:47:26.714Z,34.40
2019-01-23T18:50:07.330Z,37.13
2019-01-23T18:52:38.005Z,40.73
2019-01-23T18:55:13.136Z,37.67
2019-01-23T18:57:45.477Z,41.70
2019-01-23T19:00:22.634Z,40.33
2019-01-23T19:02:54.073Z,43.17
2019-01-23T19:05:25.333Z,44.10
2019-01-23T19:07:56.013Z,51.05
2019-01-23T19:10:26.681Z,49.37
2019-01-23T19:12:57.767Z,44.80
2019-01-23T19:15:28.633Z,42.57
2019-01-23T19:17:59.426Z,47.90
2019-01-23T19:20:30.012Z,40.50
2019-01-23T19:23:02.009Z,53.20
2019-01-23T19:25:32.563Z,42.00
2019-01-23T19:28:03.913Z,48.57
2019-01-23T19:30:34.552Z,52.07
2019-01-23T19:33:05.997Z,61.53
2019-01-23T19:35:36.987Z,52.47
2019-01-23T19:38:07.664Z,41.77
2019-01-23T19:40:40.371Z,44.98
2019-01-23T19:43:10.816Z,33.17
2019-01-23T19:45:41.460Z,45.25
2019-01-23T19:48:12.178Z,47.93
2019-01-23T19:50:42.959Z,56.58
2019-01-23T19:53:19.429Z,47.70
2019-01-23T19:55:50.049Z,52.17
2019-01-23T19:58:20.706Z,49.53
2019-01-23T20:00:51.777Z,46.45
2019-01-23T20:03:22.589Z,49.40
2019-01-23T20:05:53.534Z,53.75
2019-01-23T20:08:27.019Z,49.87
2019-01-23T20:10:57.110Z,39.93
2019-01-23T20:13:29.445Z,45.70
2019-01-23T20:16:00.781Z,49.93
2019-01-23T20:18:31.474Z,53.07
2019-01-23T20:21:02.127Z,47.97
2019-01-23T20:23:42.515Z,46.70
2019-01-23T20:26:13.274Z,50.70
2019-01-23T20:28:43.921Z,56.98
2019-01-23T20:31:14.536Z,63.17
2019-01-23T20:33:45.212Z,52.60
2019-01-23T20:36:15.913Z,55.60
2019-01-23T20:38:46.466Z,52.13
2019-01-23T20:41:17.172Z,56.00
2019-01-23T20:43:48.182Z,41.83
2019-01-23T20:46:18.702Z,42.80
2019-01-23T20:48:49.645Z,49.07
2019-01-23T20:51:23.800Z,54.20
2019-01-23T20:53:54.418Z,50.63
2019-01-23T20:56:25.071Z,61.37
2019-01-23T20:58:55.636Z,53.02
2019-01-23T21:01:26.242Z,53.13
2019-01-23T21:04:08.442Z,57.03
2019-01-23T21:06:40.255Z,50.83
2019-01-23T21:09:13.012Z,64.17
2019-01-23T21:11:46.683Z,52.37
2019-01-23T21:14:17.619Z,55.07
2019-01-23T21:16:50.385Z,46.13
2019-01-23T21:19:21.027Z,49.70
2019-01-23T21:21:51.725Z,68.17
2019-01-23T21:24:22.367Z,62.50
2019-01-23T21:26:52.997Z,64.13
2019-01-23T21:29:23.623Z,61.07
2019-01-23T21:31:54.165Z,58.63
2019-01-23T21:34:24.686Z,58.13
2019-01-23T21:36:55.170Z,50.40
2019-01-23T21:39:25.904Z,58.27
2019-01-23T21:41:56.497Z,60.23
2019-01-23T21:44:27.203Z,64.00
2019-01-23T21:46:58.392Z,68.50
2019-01-23T21:49:29.046Z,61.00
2019-01-23T21:52:01.365Z,57.83
2019-01-23T21:54:32.276Z,54.17
2019-01-23T21:57:03.911Z,62.13
2019-01-23T21:59:34.881Z,58.43
2019-01-23T22:02:07.734Z,66.07
2019-01-23T22:04:41.337Z,57.23
2019-01-23T22:07:12.644Z,54.40
2019-01-23T22:09:44.420Z,64.50
2019-01-23T22:12:15.589Z,63.10
2019-01-23T22:14:48.194Z,61.57
2019-01-23T22:17:18.855Z,66.90
2019-01-23T22:19:49.432Z,60.73
2019-01-23T22:22:20.044Z,61.20
2019-01-23T22:24:50.594Z,60.33
2019-01-23T22:27:21.584Z,59.53
2019-01-23T22:29:52.255Z,72.87
2019-01-23T22:32:25.929Z,58.10
2019-01-23T22:34:57.062Z,68.17
2019-01-23T22:37:31.707Z,76.50
2019-01-23T22:40:02.610Z,65.60
2019-01-23T22:42:33.300Z,68.87
2019-01-23T22:45:05.211Z,66.80
2019-01-23T22:47:35.836Z,67.40
2019-01-23T22:50:11.080Z,58.27
2019-01-23T22:52:42.589Z,65.20
2019-01-23T22:55:13.664Z,64.47
2019-01-23T22:57:46.407Z,71.33
2019-01-23T23:00:40.510Z,74.45
2019-01-23T23:03:14.020Z,54.63
2019-01-23T23:05:50.884Z,54.93
2019-01-23T23:08:21.140Z,58.53
2019-01-23T23:10:52.038Z,61.80
2019-01-23T23:13:27.256Z,75.37
2019-01-23T23:15:57.872Z,64.73
2019-01-23T23:18:28.745Z,71.53
2019-01-23T23:21:03.179Z,72.07
2019-01-23T23:23:34.168Z,61.90
2019-01-23T23:26:05.334Z,62.07
2019-01-23T23:28:36.022Z,60.60
2019-01-23T23:31:06.700Z,70.90
2019-01-23T23:33:39.320Z,68.80
2019-01-23T23:36:10.305Z,71.97
2019-01-23T23:38:46.374Z,68.13
2019-01-23T23:41:17.071Z,63.93
2019-01-23T23:43:47.759Z,67.93
2019-01-23T23:46:20.177Z,69.33
2019-01-23T23:48:51.030Z,65.30
2019-01-23T23:51:24.357Z,67.93
2019-01-23T23:53:57.519Z,62.60
2019-01-23T23:56:28.127Z,68.57
2019-01-23T23:58:58.856Z,55.87
